createdAt,value
2017-05-31T00:00:49.998Z,1009.65
2017-05-31T00:01:50.024Z,1009.69
2017-05-31T00:03:50.077Z,1009.71
2017-05-31T00:04:50.102Z,1009.65
2017-05-31T00:05:50.129Z,1009.77
2017-05-31T00:06:50.155Z,1009.78
2017-05-31T00:07:50.181Z,1009.71
2017-05-31T00:08:50.206Z,1009.75
2017-05-31T00:09:50.233Z,1009.76
2017-05-31T00:10:50.260Z,1009.82
2017-05-31T00:11:50.285Z,1009.77
2017-05-31T00:12:50.311Z,1009.8
2017-05-31T00:13:50.337Z,1009.84
2017-05-31T00:14:50.364Z,1009.83
2017-05-31T00:15:50.389Z,1009.88
2017-05-31T00:16:50.415Z,1009.93
2017-05-31T00:17:50.440Z,1009.84
2017-05-31T00:19:50.493Z,1009.85
2017-05-31T00:20:50.519Z,1009.84
2017-05-31T00:21:50.546Z,1009.88
2017-05-31T00:22:50.571Z,1009.85
2017-05-31T00:23:50.596Z,1009.83
2017-05-31T00:24:50.624Z,1009.86
2017-05-31T00:25:50.648Z,1009.89
2017-05-31T00:26:50.673Z,1009.86
2017-05-31T00:27:50.701Z,1009.91
2017-05-31T00:28:50.727Z,1009.85
2017-05-31T00:29:50.753Z,1009.85
2017-05-31T00:30:50.778Z,1009.89
2017-05-31T00:31:50.805Z,1009.87
2017-05-31T00:32:50.830Z,1009.88
2017-05-31T00:33:50.856Z,1009.89
2017-05-31T00:35:50.907Z,1009.9
2017-05-31T00:36:50.934Z,1009.96
2017-05-31T00:37:50.959Z,1009.94
2017-05-31T00:38:50.986Z,1009.92
2017-05-31T00:39:51.012Z,1009.95
2017-05-31T00:40:51.087Z,1009.87
2017-05-31T00:41:51.063Z,1009.91
2017-05-31T00:42:51.090Z,1009.97
2017-05-31T00:43:51.116Z,1009.94
2017-05-31T00:44:51.146Z,1009.87
2017-05-31T00:45:51.167Z,1009.89
2017-05-31T00:46:51.193Z,1009.85
2017-05-31T00:47:51.221Z,1009.83
2017-05-31T00:48:51.246Z,1009.85
2017-05-31T00:50:51.298Z,1009.89
2017-05-31T00:51:51.325Z,1009.9
2017-05-31T00:52:51.349Z,1009.89
2017-05-31T00:53:51.375Z,1009.87
2017-05-31T00:54:51.402Z,1009.92
2017-05-31T00:55:51.426Z,1009.9
2017-05-31T00:56:51.454Z,1009.9
2017-05-31T00:57:51.479Z,1009.86
2017-05-31T00:58:51.504Z,1009.91
2017-05-31T00:59:51.532Z,1009.88
2017-05-31T01:00:51.557Z,1009.86
2017-05-31T01:01:51.582Z,1009.9
2017-05-31T01:02:51.608Z,1009.9
2017-05-31T01:03:51.634Z,1009.92
2017-05-31T01:04:51.661Z,1009.97
2017-05-31T01:05:51.686Z,1009.98
2017-05-31T01:06:51.962Z,1010
2017-05-31T01:07:51.737Z,1010
2017-05-31T01:08:51.764Z,1010.02
2017-05-31T01:09:51.789Z,1010.04
2017-05-31T01:10:51.815Z,1009.97
2017-05-31T01:11:51.842Z,1010.05
2017-05-31T01:12:51.868Z,1010.04
2017-05-31T01:13:51.893Z,1010
2017-05-31T01:14:51.918Z,1009.98
2017-05-31T01:15:51.945Z,1009.99
2017-05-31T01:16:51.971Z,1009.97
2017-05-31T01:17:51.996Z,1009.97
2017-05-31T01:18:52.023Z,1010.02
2017-05-31T01:19:52.048Z,1009.97
2017-05-31T01:20:52.074Z,1009.95
2017-05-31T01:22:52.126Z,1009.98
2017-05-31T01:23:52.152Z,1009.99
2017-05-31T01:24:52.177Z,1010.01
2017-05-31T01:25:52.203Z,1010
2017-05-31T01:26:52.229Z,1010.04
2017-05-31T01:27:52.255Z,1010.05
2017-05-31T01:28:52.280Z,1010.04
2017-05-31T01:29:52.309Z,1010.06
2017-05-31T01:30:52.333Z,1010.05
2017-05-31T01:31:52.358Z,1010.04
2017-05-31T01:32:52.384Z,1010.06
2017-05-31T01:33:52.410Z,1010.06
2017-05-31T01:34:52.436Z,1010.02
2017-05-31T01:35:52.462Z,1010.04
2017-05-31T01:36:52.487Z,1010.07
2017-05-31T01:38:52.539Z,1010.06
2017-05-31T01:39:52.564Z,1010.07
2017-05-31T01:40:52.591Z,1010.07
2017-05-31T01:41:52.617Z,1010.12
2017-05-31T01:42:52.642Z,1010.1
2017-05-31T01:43:52.668Z,1010.1
2017-05-31T01:44:52.694Z,1010.08
2017-05-31T01:45:52.720Z,1010.06
2017-05-31T01:46:52.747Z,1010.09
2017-05-31T01:47:52.772Z,1010.13
2017-05-31T01:48:52.797Z,1010.13
2017-05-31T01:49:52.824Z,1010.11
2017-05-31T01:50:52.849Z,1010.11
2017-05-31T01:51:52.873Z,1010.11
2017-05-31T01:52:52.900Z,1010.11
2017-05-31T01:54:52.951Z,1010.12
2017-05-31T01:55:52.977Z,1010.06
2017-05-31T01:56:53.003Z,1010.02
2017-05-31T01:57:53.028Z,1010.02
2017-05-31T01:58:53.054Z,1010.02
2017-05-31T01:59:53.081Z,1010.05
2017-05-31T02:00:53.106Z,1010.1
2017-05-31T02:01:53.134Z,1010.18
2017-05-31T02:02:53.157Z,1010.2
2017-05-31T02:03:53.183Z,1010.26
2017-05-31T02:04:53.207Z,1010.26
2017-05-31T02:05:53.235Z,1010.32
2017-05-31T02:06:53.260Z,1010.28
2017-05-31T02:07:53.286Z,1010.35
2017-05-31T02:08:53.311Z,1010.29
2017-05-31T02:10:53.363Z,1010.26
2017-05-31T02:11:53.389Z,1010.29
2017-05-31T02:12:53.413Z,1010.35
2017-05-31T02:13:53.439Z,1010.34
2017-05-31T02:14:53.466Z,1010.29
2017-05-31T02:15:53.491Z,1010.31
2017-05-31T02:16:53.516Z,1010.36
2017-05-31T02:17:53.542Z,1010.27
2017-05-31T02:18:53.568Z,1010.33
2017-05-31T02:19:53.593Z,1010.31
2017-05-31T02:20:53.619Z,1010.29
2017-05-31T02:21:53.645Z,1010.32
2017-05-31T02:22:53.671Z,1010.35
2017-05-31T02:23:53.697Z,1010.43
2017-05-31T02:25:53.749Z,1010.36
2017-05-31T02:26:53.774Z,1010.34
2017-05-31T02:27:53.801Z,1010.38
2017-05-31T02:28:53.825Z,1010.36
2017-05-31T02:29:53.851Z,1010.4
2017-05-31T02:30:53.876Z,1010.38
2017-05-31T02:31:53.902Z,1010.37
2017-05-31T02:32:53.929Z,1010.35
2017-05-31T02:33:53.953Z,1010.36
2017-05-31T02:34:53.981Z,1010.37
2017-05-31T02:35:54.005Z,1010.41
2017-05-31T02:36:54.033Z,1010.4
2017-05-31T02:37:54.056Z,1010.44
2017-05-31T02:38:54.082Z,1010.47
2017-05-31T02:39:54.107Z,1010.47
2017-05-31T02:40:54.134Z,1010.48
2017-05-31T02:41:54.158Z,1010.49
2017-05-31T02:42:54.183Z,1010.45
2017-05-31T02:43:54.212Z,1010.43
2017-05-31T02:44:54.234Z,1010.48
2017-05-31T02:45:54.261Z,1010.45
2017-05-31T02:46:54.287Z,1010.51
2017-05-31T02:47:54.313Z,1010.54
2017-05-31T02:48:54.339Z,1010.52
2017-05-31T02:49:54.364Z,1010.53
2017-05-31T02:50:54.390Z,1010.57
2017-05-31T02:51:54.416Z,1010.56
2017-05-31T02:52:54.440Z,1010.56
2017-05-31T02:53:54.466Z,1010.49
2017-05-31T02:54:54.492Z,1010.54
2017-05-31T02:55:54.517Z,1010.52
2017-05-31T02:57:54.569Z,1010.65
2017-05-31T02:58:54.594Z,1010.65
2017-05-31T02:59:54.619Z,1010.61
2017-05-31T03:00:54.646Z,1010.63
2017-05-31T03:01:54.670Z,1010.58
2017-05-31T03:02:54.697Z,1010.69
2017-05-31T03:03:54.722Z,1010.78
2017-05-31T03:04:54.748Z,1010.71
2017-05-31T03:05:54.773Z,1010.78
2017-05-31T03:06:54.798Z,1010.7
2017-05-31T03:07:54.824Z,1010.72
2017-05-31T03:08:54.849Z,1010.73
2017-05-31T03:09:54.875Z,1010.71
2017-05-31T03:10:54.900Z,1010.71
2017-05-31T03:11:54.927Z,1010.7
2017-05-31T03:13:54.978Z,1010.7
2017-05-31T03:14:55.003Z,1010.72
2017-05-31T03:15:55.029Z,1010.74
2017-05-31T03:16:55.055Z,1010.72
2017-05-31T03:17:55.079Z,1010.67
2017-05-31T03:18:55.105Z,1010.75
2017-05-31T03:19:55.130Z,1010.72
2017-05-31T03:20:55.156Z,1010.74
2017-05-31T03:21:55.181Z,1010.75
2017-05-31T03:22:55.207Z,1010.76
2017-05-31T03:23:55.232Z,1010.74
2017-05-31T03:24:55.259Z,1010.77
2017-05-31T03:25:55.283Z,1010.85
2017-05-31T03:26:55.310Z,1010.8
2017-05-31T03:27:55.334Z,1010.79
2017-05-31T03:29:55.424Z,1010.85
2017-05-31T03:30:55.411Z,1010.84
2017-05-31T03:31:55.436Z,1010.91
2017-05-31T03:32:55.461Z,1010.85
2017-05-31T03:33:55.487Z,1010.86
2017-05-31T03:34:55.513Z,1010.97
2017-05-31T03:35:55.538Z,1010.93
2017-05-31T03:36:55.564Z,1010.86
2017-05-31T03:37:55.589Z,1010.88
2017-05-31T03:38:55.614Z,1010.98
2017-05-31T03:39:55.639Z,1010.94
2017-05-31T03:40:55.665Z,1010.93
2017-05-31T03:41:55.691Z,1010.97
2017-05-31T03:42:55.717Z,1010.95
2017-05-31T03:43:55.741Z,1010.94
2017-05-31T03:45:55.794Z,1010.95
2017-05-31T03:46:55.819Z,1011
2017-05-31T03:47:55.843Z,1011.02
2017-05-31T03:48:55.869Z,1011.06
2017-05-31T03:49:55.894Z,1011.06
2017-05-31T03:50:55.919Z,1011.03
2017-05-31T03:51:55.945Z,1011.12
2017-05-31T03:52:55.971Z,1011.03
2017-05-31T03:53:55.997Z,1011.08
2017-05-31T03:54:56.021Z,1011.07
2017-05-31T03:55:56.047Z,1011.13
2017-05-31T03:56:56.073Z,1011.18
2017-05-31T03:57:56.099Z,1011.13
2017-05-31T03:58:56.125Z,1011.13
2017-05-31T04:00:56.176Z,1011.15
2017-05-31T04:01:56.201Z,1011.22
2017-05-31T04:02:56.227Z,1011.24
2017-05-31T04:03:56.253Z,1011.17
2017-05-31T04:04:56.278Z,1011.2
2017-05-31T04:05:56.302Z,1011.22
2017-05-31T04:06:56.328Z,1011.22
2017-05-31T04:07:56.354Z,1011.24
2017-05-31T04:08:56.378Z,1011.25
2017-05-31T04:09:56.404Z,1011.23
2017-05-31T04:10:56.430Z,1011.26
2017-05-31T04:11:56.456Z,1011.32
2017-05-31T04:12:56.481Z,1011.23
2017-05-31T04:13:56.507Z,1011.35
2017-05-31T04:14:56.532Z,1011.37
2017-05-31T04:15:56.558Z,1011.34
2017-05-31T04:16:56.584Z,1011.37
2017-05-31T04:17:56.608Z,1011.38
2017-05-31T04:18:56.636Z,1011.32
2017-05-31T04:19:56.660Z,1011.4
2017-05-31T04:20:56.685Z,1011.4
2017-05-31T04:21:56.710Z,1011.49
2017-05-31T04:22:56.736Z,1011.44
2017-05-31T04:23:56.763Z,1011.45
2017-05-31T04:24:56.787Z,1011.54
2017-05-31T04:25:56.813Z,1011.53
2017-05-31T04:26:56.839Z,1011.53
2017-05-31T04:27:56.863Z,1011.55
2017-05-31T04:28:56.888Z,1011.65
2017-05-31T04:29:56.914Z,1011.6
2017-05-31T04:30:56.939Z,1011.55
2017-05-31T04:32:56.991Z,1011.58
2017-05-31T04:33:57.017Z,1011.62
2017-05-31T04:34:57.041Z,1011.63
2017-05-31T04:35:57.067Z,1011.62
2017-05-31T04:36:57.093Z,1011.64
2017-05-31T04:37:57.118Z,1011.66
2017-05-31T04:38:57.194Z,1011.69
2017-05-31T04:39:57.168Z,1011.69
2017-05-31T04:40:57.198Z,1011.67
2017-05-31T04:41:57.220Z,1011.68
2017-05-31T04:42:57.245Z,1011.68
2017-05-31T04:43:57.271Z,1011.65
2017-05-31T04:44:57.350Z,1011.69
2017-05-31T04:45:57.323Z,1011.71
2017-05-31T04:46:57.347Z,1011.73
2017-05-31T04:48:57.398Z,1011.76
2017-05-31T04:49:57.423Z,1011.76
2017-05-31T04:50:57.450Z,1011.78
2017-05-31T04:51:57.475Z,1011.83
2017-05-31T04:52:57.499Z,1011.78
2017-05-31T04:53:57.525Z,1011.82
2017-05-31T04:54:57.551Z,1011.79
2017-05-31T04:55:57.577Z,1011.8
2017-05-31T04:56:57.603Z,1011.84
2017-05-31T04:57:57.627Z,1011.76
2017-05-31T04:58:57.653Z,1011.82
2017-05-31T04:59:57.680Z,1011.89
2017-05-31T05:00:57.703Z,1011.86
2017-05-31T05:01:57.729Z,1011.88
2017-05-31T05:02:57.755Z,1011.9
2017-05-31T05:04:57.806Z,1011.86
2017-05-31T05:05:57.833Z,1012.01
2017-05-31T05:06:57.857Z,1011.92
2017-05-31T05:07:57.882Z,1012.06
2017-05-31T05:08:57.908Z,1012
2017-05-31T05:09:57.933Z,1011.98
2017-05-31T05:10:57.960Z,1012
2017-05-31T05:11:57.984Z,1012.1
2017-05-31T05:12:58.010Z,1012.03
2017-05-31T05:13:58.036Z,1012.05
2017-05-31T05:14:58.060Z,1012.02
2017-05-31T05:15:58.087Z,1012.06
2017-05-31T05:16:58.113Z,1012.11
2017-05-31T05:17:58.138Z,1012.06
2017-05-31T05:18:58.163Z,1012.07
2017-05-31T05:20:58.214Z,1012.09
2017-05-31T05:21:58.239Z,1012.1
2017-05-31T05:22:58.264Z,1012.12
2017-05-31T05:23:58.290Z,1012.18
2017-05-31T05:24:58.317Z,1012.14
2017-05-31T05:25:58.341Z,1012.19
2017-05-31T05:26:58.367Z,1012.21
2017-05-31T05:27:58.393Z,1012.24
2017-05-31T05:28:58.419Z,1012.34
2017-05-31T05:29:58.444Z,1012.27
2017-05-31T05:30:58.470Z,1012.41
2017-05-31T05:31:58.497Z,1012.45
2017-05-31T05:32:58.521Z,1012.35
2017-05-31T05:33:58.549Z,1012.34
2017-05-31T05:35:58.601Z,1012.37
2017-05-31T05:36:58.625Z,1012.46
2017-05-31T05:37:58.652Z,1012.42
2017-05-31T05:38:58.679Z,1012.33
2017-05-31T05:39:58.706Z,1012.44
2017-05-31T05:40:58.732Z,1012.42
2017-05-31T05:41:58.758Z,1012.43
2017-05-31T05:42:58.786Z,1012.39
2017-05-31T05:43:58.810Z,1012.61
2017-05-31T05:44:58.838Z,1012.57
2017-05-31T05:45:58.865Z,1012.6
2017-05-31T05:46:58.893Z,1012.54
2017-05-31T05:47:58.918Z,1012.39
2017-05-31T05:48:58.944Z,1012.47
2017-05-31T05:49:58.972Z,1012.76
2017-05-31T05:50:58.999Z,1012.62
2017-05-31T05:51:59.024Z,1012.46
2017-05-31T05:52:59.053Z,1012.48
2017-05-31T05:53:59.080Z,1012.52
2017-05-31T05:54:59.106Z,1012.45
2017-05-31T05:55:59.135Z,1012.58
2017-05-31T05:56:59.162Z,1012.57
2017-05-31T05:57:59.190Z,1012.83
2017-05-31T05:58:59.217Z,1012.99
2017-05-31T05:59:59.245Z,1013.07
2017-05-31T06:00:59.273Z,1012.98
2017-05-31T06:01:59.301Z,1012.94
2017-05-31T06:02:59.330Z,1012.97
2017-05-31T06:03:59.360Z,1012.89
2017-05-31T06:04:59.388Z,1012.7
2017-05-31T06:05:59.419Z,1012.95
2017-05-31T06:07:59.480Z,1012.9
2017-05-31T06:08:59.511Z,1013.03
2017-05-31T06:09:59.541Z,1012.82
2017-05-31T06:10:59.572Z,1013.05
2017-05-31T06:11:59.606Z,1013.13
2017-05-31T06:12:59.637Z,1013.11
2017-05-31T06:13:59.669Z,1013.2
2017-05-31T06:14:59.708Z,1013.2
2017-05-31T06:15:59.735Z,1013.14
2017-05-31T06:16:59.767Z,1013.25
2017-05-31T06:17:59.800Z,1012.91
2017-05-31T06:18:59.835Z,1012.77
2017-05-31T06:19:59.868Z,1013.48
2017-05-31T06:20:59.901Z,1013.52
2017-05-31T06:21:59.936Z,1013.43
2017-05-31T06:24:00.004Z,1012.88
2017-05-31T06:25:00.037Z,1012.81
2017-05-31T06:26:00.071Z,1012.81
2017-05-31T06:27:00.105Z,1012.79
2017-05-31T06:28:00.137Z,1012.88
2017-05-31T06:29:00.171Z,1012.87
2017-05-31T06:30:00.204Z,1012.89
2017-05-31T06:31:00.237Z,1012.92
2017-05-31T06:32:00.269Z,1013.24
2017-05-31T06:33:00.302Z,1013.08
2017-05-31T06:34:00.334Z,1012.92
2017-05-31T06:35:00.366Z,1013.77
2017-05-31T06:36:00.397Z,1012.99
2017-05-31T06:37:00.429Z,1012.97
2017-05-31T06:38:00.462Z,1012.91
2017-05-31T06:40:00.525Z,1013.78
2017-05-31T06:41:00.556Z,1013.15
2017-05-31T06:42:00.586Z,1012.97
2017-05-31T06:43:00.617Z,1012.97
2017-05-31T06:44:00.649Z,1013.85
2017-05-31T06:45:00.679Z,1013.14
2017-05-31T06:46:00.712Z,1013.08
2017-05-31T06:47:00.742Z,1013.03
2017-05-31T06:48:00.773Z,1013.05
2017-05-31T06:49:00.805Z,1013.89
2017-05-31T06:50:00.835Z,1013.96
2017-05-31T06:51:00.866Z,1013.8
2017-05-31T06:52:00.897Z,1013.9
2017-05-31T06:53:00.928Z,1013.75
2017-05-31T06:54:00.959Z,1013.98
2017-05-31T06:56:01.024Z,1013.89
2017-05-31T06:57:01.106Z,1014.07
2017-05-31T06:58:01.087Z,1014.2
2017-05-31T06:59:01.121Z,1014.19
2017-05-31T07:00:01.154Z,1014.17
2017-05-31T07:01:01.187Z,1014.22
2017-05-31T07:02:01.219Z,1014.1
2017-05-31T07:03:01.254Z,1014.27
2017-05-31T07:04:01.288Z,1013.13
2017-05-31T07:05:01.322Z,1013.9
2017-05-31T07:06:01.357Z,1014.45
2017-05-31T07:07:01.391Z,1014.36
2017-05-31T07:08:01.425Z,1013.54
2017-05-31T07:09:01.460Z,1013.24
2017-05-31T07:11:01.529Z,1014.65
2017-05-31T07:12:01.563Z,1014.63
2017-05-31T07:13:01.597Z,1014.65
2017-05-31T07:14:01.633Z,1014.71
2017-05-31T07:15:01.667Z,1014.85
2017-05-31T07:16:01.701Z,1014.78
2017-05-31T07:17:01.736Z,1014.85
2017-05-31T07:18:01.771Z,1013.46
2017-05-31T07:19:01.805Z,1013.38
2017-05-31T07:20:01.840Z,1013.23
2017-05-31T07:21:01.874Z,1013.85
2017-05-31T07:22:01.960Z,1013.2
2017-05-31T07:23:01.945Z,1013.24
2017-05-31T07:24:01.979Z,1013.19
2017-05-31T07:25:02.013Z,1013.24
2017-05-31T07:26:02.048Z,1013.25
2017-05-31T07:27:02.081Z,1013.23
2017-05-31T07:28:02.115Z,1013.28
2017-05-31T07:29:02.149Z,1013.25
2017-05-31T07:30:02.182Z,1013.29
2017-05-31T07:31:02.214Z,1013.27
2017-05-31T07:32:02.247Z,1013.32
2017-05-31T07:33:02.279Z,1013.23
2017-05-31T07:34:02.310Z,1013.33
2017-05-31T07:35:02.393Z,1013.3
2017-05-31T07:36:02.375Z,1013.42
2017-05-31T07:37:02.406Z,1013.42
2017-05-31T07:38:02.437Z,1013.38
2017-05-31T07:39:02.468Z,1013.34
2017-05-31T07:40:02.500Z,1013.36
2017-05-31T07:41:02.530Z,1013.44
2017-05-31T07:43:02.591Z,1013.49
2017-05-31T07:44:02.621Z,1013.67
2017-05-31T07:45:02.651Z,1013.72
2017-05-31T07:46:02.682Z,1013.81
2017-05-31T07:47:02.712Z,1014.06
2017-05-31T07:48:02.743Z,1014.01
2017-05-31T07:49:02.773Z,1013.95
2017-05-31T07:50:02.805Z,1013.95
2017-05-31T07:51:02.835Z,1013.99
2017-05-31T07:52:02.866Z,1013.95
2017-05-31T07:53:02.897Z,1013.97
2017-05-31T07:54:02.930Z,1013.92
2017-05-31T07:55:02.962Z,1013.91
2017-05-31T07:56:02.994Z,1013.53
2017-05-31T07:57:03.025Z,1013.49
2017-05-31T07:59:03.092Z,1013.92
2017-05-31T08:00:03.124Z,1013.89
2017-05-31T08:01:03.157Z,1014.05
2017-05-31T08:02:03.192Z,1014.03
2017-05-31T08:03:03.222Z,1014.12
2017-05-31T08:04:03.256Z,1014.11
2017-05-31T08:05:03.289Z,1014.09
2017-05-31T08:06:03.322Z,1014.04
2017-05-31T08:07:03.356Z,1014.06
2017-05-31T08:08:03.390Z,1013.96
2017-05-31T08:09:03.424Z,1013.44
2017-05-31T08:10:03.459Z,1013.43
2017-05-31T08:11:03.491Z,1013.49
2017-05-31T08:12:03.525Z,1013.8
2017-05-31T08:13:03.559Z,1014.05
2017-05-31T08:15:03.625Z,1013.86
2017-05-31T08:16:03.659Z,1014.02
2017-05-31T08:17:03.694Z,1013.91
2017-05-31T08:18:03.727Z,1013.62
2017-05-31T08:19:03.761Z,1013.52
2017-05-31T08:20:03.796Z,1013.55
2017-05-31T08:21:03.829Z,1014.02
2017-05-31T08:22:03.863Z,1014.15
2017-05-31T08:23:03.897Z,1014.16
2017-05-31T08:24:03.931Z,1014.04
2017-05-31T08:25:03.964Z,1013.7
2017-05-31T08:26:03.998Z,1014.02
2017-05-31T08:27:04.031Z,1014
2017-05-31T08:28:04.066Z,1013.51
2017-05-31T08:29:04.099Z,1013.58
2017-05-31T08:31:04.166Z,1013.56
2017-05-31T08:32:04.200Z,1013.5
2017-05-31T08:33:04.233Z,1013.55
2017-05-31T08:34:04.267Z,1013.56
2017-05-31T08:35:04.300Z,1013.58
2017-05-31T08:36:04.332Z,1013.53
2017-05-31T08:37:04.365Z,1014.13
2017-05-31T08:38:04.398Z,1014.03
2017-05-31T08:39:04.431Z,1013.45
2017-05-31T08:40:04.463Z,1013.96
2017-05-31T08:41:04.496Z,1013.94
2017-05-31T08:42:04.528Z,1013.47
2017-05-31T08:43:04.561Z,1013.9
2017-05-31T08:44:04.594Z,1013.53
2017-05-31T08:46:04.659Z,1013.92
2017-05-31T08:47:04.691Z,1013.5
2017-05-31T08:48:04.723Z,1013.65
2017-05-31T08:49:04.756Z,1013.59
2017-05-31T08:50:04.789Z,1013.61
2017-05-31T08:51:04.820Z,1013.55
2017-05-31T08:52:04.854Z,1013.29
2017-05-31T08:53:04.887Z,1013.57
2017-05-31T08:54:04.919Z,1013.65
2017-05-31T08:55:05.007Z,1013.51
2017-05-31T08:56:04.986Z,1013.44
2017-05-31T08:57:05.019Z,1013.34
2017-05-31T08:58:05.051Z,1013.39
2017-05-31T08:59:05.083Z,1013.4
2017-05-31T09:00:05.116Z,1013.49
2017-05-31T09:01:05.159Z,1013.51
2017-05-31T09:02:05.181Z,1013.42
2017-05-31T09:03:05.265Z,1013.47
2017-05-31T09:04:05.248Z,1013.29
2017-05-31T09:05:05.279Z,1013.46
2017-05-31T09:06:05.311Z,1013.45
2017-05-31T09:07:05.344Z,1013.55
2017-05-31T09:08:05.376Z,1013.54
2017-05-31T09:09:05.408Z,1013.55
2017-05-31T09:10:05.440Z,1013.47
2017-05-31T09:11:05.473Z,1013.5
2017-05-31T09:12:05.504Z,1013.45
2017-05-31T09:13:05.536Z,1013.52
2017-05-31T09:14:05.568Z,1013.42
2017-05-31T09:15:05.601Z,1013.49
2017-05-31T09:16:05.632Z,1013.49
2017-05-31T09:18:05.696Z,1013.51
2017-05-31T09:19:05.732Z,1013.54
2017-05-31T09:20:05.762Z,1013.52
2017-05-31T09:21:05.791Z,1013.52
2017-05-31T09:22:05.824Z,1013.5
2017-05-31T09:23:05.856Z,1013.43
2017-05-31T09:24:05.887Z,1013.47
2017-05-31T09:25:05.918Z,1013.44
2017-05-31T09:26:05.950Z,1013.5
2017-05-31T09:27:05.981Z,1013.55
2017-05-31T09:28:06.012Z,1013.55
2017-05-31T09:29:06.045Z,1013.55
2017-05-31T09:30:06.076Z,1013.63
2017-05-31T09:31:06.109Z,1013.55
2017-05-31T09:32:06.140Z,1013.51
2017-05-31T09:34:06.206Z,1013.54
2017-05-31T09:35:06.238Z,1013.6
2017-05-31T09:36:06.270Z,1013.64
2017-05-31T09:37:06.303Z,1013.47
2017-05-31T09:38:06.335Z,1013.51
2017-05-31T09:39:06.367Z,1013.71
2017-05-31T09:40:06.401Z,1013.65
2017-05-31T09:41:06.433Z,1013.64
2017-05-31T09:42:06.465Z,1013.59
2017-05-31T09:43:06.497Z,1013.64
2017-05-31T09:44:06.530Z,1013.64
2017-05-31T09:45:06.563Z,1013.78
2017-05-31T09:46:06.594Z,1013.67
2017-05-31T09:47:06.627Z,1013.68
2017-05-31T09:48:06.660Z,1013.57
2017-05-31T09:50:06.724Z,1013.65
2017-05-31T09:51:06.756Z,1013.7
2017-05-31T09:52:06.789Z,1013.67
2017-05-31T09:53:06.820Z,1013.64
2017-05-31T09:54:06.854Z,1013.68
2017-05-31T09:55:06.885Z,1013.67
2017-05-31T09:56:06.917Z,1013.65
2017-05-31T09:57:06.950Z,1013.65
2017-05-31T09:58:06.981Z,1013.68
2017-05-31T09:59:07.013Z,1013.66
2017-05-31T10:00:07.045Z,1013.61
2017-05-31T10:01:07.077Z,1013.64
2017-05-31T10:02:07.109Z,1013.7
2017-05-31T10:03:07.140Z,1013.68
2017-05-31T10:04:07.172Z,1013.61
2017-05-31T10:06:07.235Z,1013.64
2017-05-31T10:07:07.267Z,1013.71
2017-05-31T10:08:07.298Z,1013.68
2017-05-31T10:09:07.329Z,1013.7
2017-05-31T10:10:07.361Z,1013.71
2017-05-31T10:11:07.441Z,1013.61
2017-05-31T10:12:07.422Z,1013.68
2017-05-31T10:13:07.454Z,1013.76
2017-05-31T10:14:07.485Z,1013.71
2017-05-31T10:15:07.516Z,1013.66
2017-05-31T10:16:07.546Z,1013.67
2017-05-31T10:17:07.577Z,1013.66
2017-05-31T10:18:07.608Z,1013.67
2017-05-31T10:19:07.639Z,1013.69
2017-05-31T10:21:07.701Z,1013.72
2017-05-31T10:22:07.731Z,1013.7
2017-05-31T10:23:07.761Z,1013.71
2017-05-31T10:24:07.792Z,1013.63
2017-05-31T10:25:07.822Z,1013.71
2017-05-31T10:26:07.853Z,1013.65
2017-05-31T10:27:07.883Z,1013.63
2017-05-31T10:28:07.914Z,1013.61
2017-05-31T10:29:07.943Z,1013.66
2017-05-31T10:30:07.975Z,1013.66
2017-05-31T10:31:08.005Z,1013.55
2017-05-31T10:32:08.036Z,1013.52
2017-05-31T10:33:08.066Z,1013.61
2017-05-31T10:34:08.097Z,1013.58
2017-05-31T10:35:08.129Z,1013.63
2017-05-31T10:36:08.159Z,1013.66
2017-05-31T10:37:08.190Z,1013.62
2017-05-31T10:38:08.220Z,1013.63
2017-05-31T10:39:08.250Z,1013.69
2017-05-31T10:40:08.280Z,1013.59
2017-05-31T10:41:08.312Z,1013.59
2017-05-31T10:42:08.343Z,1013.51
2017-05-31T10:43:08.374Z,1013.46
2017-05-31T10:44:08.402Z,1013.59
2017-05-31T10:45:08.434Z,1013.55
2017-05-31T10:46:08.464Z,1013.62
2017-05-31T10:47:08.495Z,1013.6
2017-05-31T10:48:08.526Z,1013.68
2017-05-31T10:49:08.556Z,1013.69
2017-05-31T10:50:08.587Z,1013.65
2017-05-31T10:51:08.617Z,1013.62
2017-05-31T10:53:08.677Z,1013.55
2017-05-31T10:54:08.709Z,1013.51
2017-05-31T10:55:08.738Z,1013.59
2017-05-31T10:56:08.769Z,1013.67
2017-05-31T10:57:08.800Z,1013.65
2017-05-31T10:58:08.831Z,1013.52
2017-05-31T10:59:08.861Z,1013.61
2017-05-31T11:00:08.891Z,1013.53
2017-05-31T11:01:08.922Z,1013.56
2017-05-31T11:02:08.952Z,1013.54
2017-05-31T11:03:08.982Z,1013.63
2017-05-31T11:04:09.013Z,1013.53
2017-05-31T11:05:09.044Z,1013.69
2017-05-31T11:06:09.073Z,1013.63
2017-05-31T11:07:09.104Z,1013.65
2017-05-31T11:09:09.165Z,1013.49
2017-05-31T11:10:09.195Z,1013.57
2017-05-31T11:11:09.226Z,1013.59
2017-05-31T11:12:09.257Z,1013.57
2017-05-31T11:13:09.286Z,1013.65
2017-05-31T11:14:09.316Z,1013.64
2017-05-31T11:15:09.348Z,1013.6
2017-05-31T11:16:09.378Z,1013.69
2017-05-31T11:17:09.408Z,1013.54
2017-05-31T11:18:09.438Z,1013.6
2017-05-31T11:19:09.469Z,1013.62
2017-05-31T11:20:09.500Z,1013.59
2017-05-31T11:21:09.529Z,1013.58
2017-05-31T11:22:09.560Z,1013.59
2017-05-31T11:23:09.591Z,1013.63
2017-05-31T11:25:09.651Z,1013.7
2017-05-31T11:26:09.681Z,1013.58
2017-05-31T11:27:09.711Z,1013.45
2017-05-31T11:28:09.742Z,1013.53
2017-05-31T11:29:09.771Z,1013.51
2017-05-31T11:30:09.802Z,1013.56
2017-05-31T11:31:09.834Z,1013.52
2017-05-31T11:32:09.862Z,1013.44
2017-05-31T11:33:09.893Z,1013.47
2017-05-31T11:34:09.924Z,1013.4
2017-05-31T11:35:09.952Z,1013.44
2017-05-31T11:36:09.983Z,1013.49
2017-05-31T11:37:10.019Z,1013.52
2017-05-31T11:38:10.044Z,1013.45
2017-05-31T11:39:10.073Z,1013.51
2017-05-31T11:41:10.134Z,1013.39
2017-05-31T11:42:10.164Z,1013.37
2017-05-31T11:43:10.193Z,1013.39
2017-05-31T11:44:10.222Z,1013.43
2017-05-31T11:45:10.253Z,1013.48
2017-05-31T11:46:10.282Z,1013.45
2017-05-31T11:47:10.312Z,1013.46
2017-05-31T11:48:10.342Z,1013.49
2017-05-31T11:49:10.372Z,1013.35
2017-05-31T11:50:10.401Z,1013.37
2017-05-31T11:51:10.431Z,1013.49
2017-05-31T11:52:10.461Z,1013.54
2017-05-31T11:53:10.491Z,1013.49
2017-05-31T11:54:10.522Z,1013.42
2017-05-31T11:56:10.581Z,1013.48
2017-05-31T11:57:10.610Z,1013.55
2017-05-31T11:58:10.640Z,1013.5
2017-05-31T11:59:10.671Z,1013.35
2017-05-31T12:00:10.700Z,1013.37
2017-05-31T12:01:10.730Z,1013.45
2017-05-31T12:02:10.759Z,1013.44
2017-05-31T12:03:10.790Z,1013.44
2017-05-31T12:04:10.819Z,1013.46
2017-05-31T12:05:10.848Z,1013.41
2017-05-31T12:06:10.878Z,1013.37
2017-05-31T12:07:11.022Z,1013.59
2017-05-31T12:08:10.938Z,1013.36
2017-05-31T12:09:10.968Z,1013.4
2017-05-31T12:10:10.997Z,1013.46
2017-05-31T12:11:11.028Z,1013.42
2017-05-31T12:12:11.056Z,1013.47
2017-05-31T12:13:11.087Z,1013.5
2017-05-31T12:14:11.117Z,1013.45
2017-05-31T12:15:11.145Z,1013.54
2017-05-31T12:16:11.176Z,1013.49
2017-05-31T12:17:11.205Z,1013.43
2017-05-31T12:18:11.236Z,1013.45
2017-05-31T12:19:11.264Z,1013.43
2017-05-31T12:20:11.294Z,1013.41
2017-05-31T12:21:11.324Z,1013.32
2017-05-31T12:22:11.353Z,1013.43
2017-05-31T12:23:11.383Z,1013.3
2017-05-31T12:24:11.413Z,1013.44
2017-05-31T12:25:11.442Z,1013.34
2017-05-31T12:26:11.471Z,1013.4
2017-05-31T12:28:11.531Z,1013.33
2017-05-31T12:29:11.561Z,1013.31
2017-05-31T12:30:11.589Z,1013.35
2017-05-31T12:31:11.620Z,1013.35
2017-05-31T12:32:11.649Z,1013.4
2017-05-31T12:33:11.679Z,1013.39
2017-05-31T12:34:11.708Z,1013.4
2017-05-31T12:35:11.737Z,1013.35
2017-05-31T12:36:11.818Z,1013.35
2017-05-31T12:37:11.796Z,1013.35
2017-05-31T12:38:11.826Z,1013.37
2017-05-31T12:39:11.856Z,1013.31
2017-05-31T12:40:11.887Z,1013.42
2017-05-31T12:41:11.915Z,1013.44
2017-05-31T12:42:11.944Z,1013.39
2017-05-31T12:44:12.003Z,1013.42
2017-05-31T12:45:12.032Z,1013.57
2017-05-31T12:46:12.062Z,1013.54
2017-05-31T12:47:12.092Z,1013.48
2017-05-31T12:48:12.121Z,1013.5
2017-05-31T12:49:12.150Z,1013.55
2017-05-31T12:50:12.180Z,1013.36